• Join FlightAware (Why Join?)
  • Login
  • US Flag 
11:10PM EDT


 

Airport Tracker/Info


-or-


 

Live Flight TrackerFlight Track Log ✈ UAL4419 ✈ 18-Apr-2013 ✈ KIAH - KLIT

Flight Track Log - Related Links

Times and Time Zones

All times are in EDT time to prevent confusion due to time zone crossing. See the UAL4419 flight status page for this flight to view local times or setup timezone preferences in your user account.

Time Position Orientation Groundspeed Altitude Reporting Facility
EDT Latitude Longitude Course Direction KTS MPH feet Rate Location/Type
09:34PM 29.9778 -95.3367 30° Northeast 161 185 900  Level Houston Center
09:34PM 29.9772 -95.3536 268° West 166 191 1,700 1,680 Climbing Houston Center
09:35PM 30.0036 -95.3700 332° Northwest 203 234 3,100 1,500 Climbing Houston Center
09:36PM 30.0711 -95.3303 27° Northeast 225 259 4,700 1,740 Climbing Houston Center
09:37PM 30.4147 -95.1593 23° Northeast  Level FlightAware Approximate
09:37PM 30.1353 -95.2992 23° Northeast 240 276 6,700  Level Houston Center
09:38PM 30.5173 -95.1000 North  Level FlightAware Approximate
09:38PM 30.2136 -95.2622 22° Northeast 287 330 8,800  Level Houston Center
09:39PM 30.6166 -95.0390 30° Northeast  Level FlightAware Approximate
09:39PM 30.2925 -95.2217 24° Northeast 305 351 11,000  Level Houston Center
09:40PM 30.3806 -95.1797 22° Northeast 332 382 12,100 1,020 Climbing Houston Center
09:41PM 30.4778 -95.1278 25° Northeast 366 421 13,200 1,080 Climbing Houston Center
09:42PM 30.5814 -95.0764 23° Northeast 392 451 14,400 1,380 Climbing Houston Center
09:43PM 30.7053 -95.0025 27° Northeast 412 474 16,100 1,440 Climbing Houston Center
09:44PM 30.8072 -94.9367 29° Northeast 417 480 17,400 1,260 Climbing Houston Center
09:45PM 30.9128 -94.8719 28° Northeast 425 489 18,800 1,260 Climbing Houston Center
09:46PM 30.9556 -94.8481 26° Northeast 407 468 19,300 1,260 Climbing Fort Worth Center
09:47PM 31.0628 -94.7797 29° Northeast 413 475 20,700 1,320 Climbing Fort Worth Center
09:48PM 31.1739 -94.7111 28° Northeast 428 493 22,000 1,260 Climbing Fort Worth Center
09:49PM 31.2831 -94.6350 31° Northeast 440 506 23,300 1,380 Climbing Fort Worth Center
09:50PM 31.4064 -94.5486 31° Northeast 456 525 24,800 1,200 Climbing Fort Worth Center
09:51PM 31.5172 -94.4719 31° Northeast 462 532 25,800 1,020 Climbing Fort Worth Center
09:52PM 31.6303 -94.3953 30° Northeast 462 532 26,900 1,140 Climbing Fort Worth Center
09:53PM 31.7431 -94.3158 31° Northeast 467 537 28,100 1,200 Climbing Fort Worth Center
09:54PM 31.8622 -94.2336 30° Northeast 474 545 29,400 1,200 Climbing Fort Worth Center
09:55PM 31.9728 -94.1514 32° Northeast 474 545 30,600 1,200 Climbing Fort Worth Center
09:56PM 32.0897 -94.0711 30° Northeast 474 545 31,800 1,140 Climbing Fort Worth Center
09:57PM 32.2083 -93.9808 33° Northeast 486 559 32,900 600 Climbing Fort Worth Center
09:58PM 32.3292 -93.8953 31° Northeast 491 565 33,000  Climbing Fort Worth Center
09:59PM 32.4581 -93.8067 30° Northeast 506 582 33,000  Level Fort Worth Center
10:00PM 32.5892 -93.7150 30° Northeast 527 606 33,000  Level Fort Worth Center
10:01PM 32.7219 -93.6181 32° Northeast 539 620 33,000  Level Fort Worth Center
10:02PM 32.8528 -93.5261 31° Northeast 539 620 33,000  Level Fort Worth Center
10:03PM 32.9811 -93.4314 32° Northeast 539 620 33,000  Level Fort Worth Center
10:04PM 33.1117 -93.3364 31° Northeast 544 626 33,000  Level Fort Worth Center
10:05PM 33.2422 -93.2458 30° Northeast 544 626 33,000  Level Fort Worth Center
10:07PM 33.4964 -93.0625 31° Northeast 562 647 33,000 -300 Level Memphis Center
10:08PM 33.6239 -92.9667 32° Northeast 557 641 32,200 -900 Descending Memphis Center
10:09PM 33.7531 -92.8756 30° Northeast 544 626 31,200 -1,200 Descending Memphis Center
10:10PM 33.8800 -92.7817 32° Northeast 539 620 29,800 -2,280 Descending Memphis Center
10:11PM 34.0028 -92.6900 32° Northeast 534 615 26,700 -3,360 Descending Memphis Center
10:12PM 34.1256 -92.5978 32° Northeast 507 583 23,100 -3,600 Descending Memphis Center
10:12PM 34.2122 -92.5322 32° Northeast 496 571 20,600 -3,420 Descending Memphis Center
10:13PM 34.2503 -92.5031 32° Northeast 508 585 19,700 -3,600 Descending Memphis Center
10:13PM 34.3306 -92.4422 32° Northeast 475 547 17,000 -3,420 Descending Memphis Center
10:14PM 34.3625 -92.4178 32° Northeast 488 562 16,300 -3,060 Descending Memphis Center
10:14PM 34.4342 -92.3667 30° Northeast 456 525 13,900 -3,000 Descending Memphis Center
10:15PM 34.4700 -92.3372 34° Northeast 470 541 13,300 -2,220 Descending Memphis Center
10:15PM 34.5378 -92.2883 31° Northeast 402 463 11,700 -2,040 Descending Memphis Center
10:16PM 34.5672 -92.2664 32° Northeast 433 498 11,300 -2,220 Descending Memphis Center
10:16PM 34.6219 -92.2247 32° Northeast 348 400 9,500 -2,220 Descending Memphis Center
10:17PM 34.6475 -92.2025 36° Northeast 384 442 9,100 -1,620 Descending Memphis Center
10:17PM 34.6983 -92.1481 41° Northeast 308 354 7,700 -1,980 Descending Memphis Center
10:18PM 34.7431 -92.0758 53° Northeast 261 300 5,700 -1,800 Descending Memphis Center
10:20PM 34.8042 -92.0442 23° Northeast 187 215 3,900 -1,500 Descending Memphis Center
10:20PM 34.7906 -92.1069 255° West 175 201 2,600 -1,200 Descending Memphis Center
10:22PM 34.7714 -92.1522 243° Southwest 119 137 1,500 -780 Descending Memphis Center
10:23PM 34.7564 -92.1744 231° Southwest 110 127 1,000 -540 Descending Memphis Center